createdAt,value
2022-12-25T00:02:11.229Z,98325.41
2022-12-25T00:05:15.434Z,98333.97
2022-12-25T00:08:18.556Z,98345.72
2022-12-25T00:11:22.332Z,98336.09
2022-12-25T00:14:25.483Z,98344.13
2022-12-25T00:17:29.199Z,98343.31
2022-12-25T00:20:33.470Z,98350.31
2022-12-25T00:23:37.417Z,98350.03
2022-12-25T00:26:40.310Z,98332.94
2022-12-25T00:29:43.300Z,98336.16
2022-12-25T00:32:46.121Z,98333.53
2022-12-25T00:35:59.934Z,98328.16
2022-12-25T00:39:03.306Z,98329.22
2022-12-25T00:42:21.831Z,98320.69
2022-12-25T00:45:25.231Z,98338.06
2022-12-25T00:48:29.867Z,98344.22
2022-12-25T00:51:34.178Z,98341.81
2022-12-25T00:54:37.265Z,98340.25
2022-12-25T00:57:40.140Z,98340.78
2022-12-25T01:00:43.062Z,98343.47
2022-12-25T01:03:46.412Z,98338.09
2022-12-25T01:06:50.624Z,98334.59
2022-12-25T01:10:11.393Z,98339.19
2022-12-25T01:13:14.627Z,98341.88
2022-12-25T01:16:17.680Z,98338.09
2022-12-25T01:19:20.807Z,98341.88
2022-12-25T01:22:25.147Z,98346.69
2022-12-25T01:25:28.077Z,98347.50
2022-12-25T01:28:30.903Z,98345.88
2022-12-25T01:31:33.812Z,98349.63
2022-12-25T01:34:36.642Z,98350.69
2022-12-25T01:37:41.384Z,98360.06
2022-12-25T01:40:44.749Z,98356.56
2022-12-25T01:44:03.232Z,98364.88
2022-12-25T01:47:07.966Z,98363.00
2022-12-25T01:50:11.397Z,98360.84
2022-12-25T01:53:16.250Z,98357.34
2022-12-25T01:56:19.577Z,98351.44
2022-12-25T01:59:25.888Z,98352.25
2022-12-25T02:02:29.983Z,98348.22
2022-12-25T02:05:34.268Z,98354.66
2022-12-25T02:08:38.900Z,98353.84
2022-12-25T02:12:00.234Z,98349.00
2022-12-25T02:15:06.662Z,98350.34
2022-12-25T02:18:18.865Z,98346.09
2022-12-25T02:21:44.577Z,98344.72
2022-12-25T02:25:05.007Z,98345.78
2022-12-25T02:28:16.404Z,98347.69
2022-12-25T02:31:28.348Z,98333.25
2022-12-25T02:34:39.131Z,98338.88
2022-12-25T02:37:50.945Z,98342.59
2022-12-25T02:40:58.267Z,98341.28
2022-12-25T02:44:23.908Z,98339.41
2022-12-25T02:47:45.371Z,98331.94
2022-12-25T02:51:06.493Z,98343.69
2022-12-25T02:54:31.153Z,98338.31
2022-12-25T02:58:03.033Z,98341.50
2022-12-25T03:01:28.079Z,98342.53
2022-12-25T03:04:49.621Z,98348.41
2022-12-25T03:07:53.168Z,98339.31
2022-12-25T03:11:19.159Z,98333.97
2022-12-25T03:14:39.756Z,98324.03
2022-12-25T03:17:44.265Z,98328.31
2022-12-25T03:21:04.683Z,98323.22
2022-12-25T03:24:33.506Z,98311.69
2022-12-25T03:27:36.641Z,98307.66
2022-12-25T03:31:03.574Z,98298.03
2022-12-25T03:34:51.919Z,98305.50
2022-12-25T03:38:46.446Z,98301.47
2022-12-25T03:42:11.689Z,98303.03
2022-12-25T03:45:41.787Z,98300.91
2022-12-25T03:49:08.942Z,98287.50
2022-12-25T03:52:34.760Z,98300.09
2022-12-25T03:55:54.736Z,98298.25
2022-12-25T03:59:31.257Z,98281.38
2022-12-25T04:02:51.833Z,98285.66
2022-12-25T04:06:12.459Z,98277.13
2022-12-25T04:09:34.374Z,98296.63
2022-12-25T04:12:54.571Z,98293.41
2022-12-25T04:16:15.341Z,98287.00
2022-12-25T04:19:36.393Z,98283.25
2022-12-25T04:22:56.623Z,98284.34
2022-12-25T04:26:18.650Z,98276.03
2022-12-25T04:29:38.934Z,98275.78
2022-12-25T04:32:59.838Z,98267.22
2022-12-25T04:36:11.607Z,98265.88
2022-12-25T04:39:14.390Z,98271.50
2022-12-25T04:42:18.592Z,98273.66
2022-12-25T04:45:21.812Z,98265.94
2022-12-25T04:48:25.374Z,98265.94
2022-12-25T04:51:28.285Z,98270.75
2022-12-25T04:54:30.985Z,98276.09
2022-12-25T04:57:35.415Z,98269.69
2022-12-25T05:00:38.431Z,98261.69
2022-12-25T05:03:41.972Z,98262.72
2022-12-25T05:06:45.002Z,98254.69
2022-12-25T05:09:47.833Z,98254.97
2022-12-25T05:12:51.968Z,98245.34
2022-12-25T05:15:55.286Z,98236.28
2022-12-25T05:18:58.594Z,98249.94
2022-12-25T05:22:01.583Z,98248.34
2022-12-25T05:25:04.473Z,98245.66
2022-12-25T05:28:09.099Z,98252.09
2022-12-25T05:31:12.409Z,98251.56
2022-12-25T05:34:15.257Z,98247.56
2022-12-25T05:37:17.999Z,98239.25
2022-12-25T05:40:20.716Z,98251.56
2022-12-25T05:43:26.105Z,98245.69
2022-12-25T05:46:29.123Z,98237.13
2022-12-25T05:49:34.602Z,98228.03
2022-12-25T05:52:37.495Z,98221.88
2022-12-25T05:55:43.561Z,98222.13
2022-12-25T05:58:47.853Z,98217.06
2022-12-25T06:01:50.814Z,98208.50
2022-12-25T06:04:53.641Z,98211.16
2022-12-25T06:07:56.956Z,98203.69
2022-12-25T06:10:59.917Z,98207.97
2022-12-25T06:14:04.261Z,98205.28
2022-12-25T06:17:07.536Z,98210.38
2022-12-25T06:20:11.120Z,98199.13
2022-12-25T06:23:14.169Z,98205.03
2022-12-25T06:26:20.354Z,98198.59
2022-12-25T06:29:24.705Z,98201.25
2022-12-25T06:32:27.527Z,98192.16
2022-12-25T06:35:30.653Z,98191.09
2022-12-25T06:38:33.441Z,98193.78
2022-12-25T06:41:36.571Z,98199.66
2022-12-25T06:44:40.709Z,98201.00
2022-12-25T06:47:43.544Z,98202.34
2022-12-25T06:50:46.387Z,98205.03
2022-12-25T06:53:49.412Z,98216.53
2022-12-25T06:56:52.441Z,98213.59
2022-12-25T06:59:57.203Z,98212.53
2022-12-25T07:03:00.319Z,98216.00
2022-12-25T07:06:03.116Z,98208.75
2022-12-25T07:09:05.948Z,98210.38
2022-12-25T07:12:15.915Z,98213.59
2022-12-25T07:15:20.117Z,98213.59
2022-12-25T07:18:23.306Z,98223.78
2022-12-25T07:21:26.316Z,98206.38
2022-12-25T07:24:29.088Z,98209.59
2022-12-25T07:27:32.194Z,98202.88
2022-12-25T07:30:36.550Z,98206.88
2022-12-25T07:33:39.672Z,98198.31
2022-12-25T07:36:42.559Z,98183.59
2022-12-25T07:39:45.879Z,98178.25
2022-12-25T07:42:48.743Z,98181.72
2022-12-25T07:45:57.762Z,98170.75
2022-12-25T07:49:01.250Z,98170.75
2022-12-25T07:52:04.674Z,98173.44
2022-12-25T07:55:08.022Z,98179.84
2022-12-25T07:58:13.756Z,98168.88
2022-12-25T08:01:21.899Z,98173.72
2022-12-25T08:04:25.185Z,98181.44
2022-12-25T08:07:28.011Z,98176.91
2022-12-25T08:10:30.704Z,98197.50
2022-12-25T08:13:34.664Z,98204.75
2022-12-25T08:16:41.603Z,98200.22
2022-12-25T08:19:44.582Z,98192.72
2022-12-25T08:22:47.489Z,98202.63
2022-12-25T08:25:50.676Z,98207.97
2022-12-25T08:28:53.421Z,98190.59
2022-12-25T08:31:57.603Z,98212.81
2022-12-25T08:35:00.708Z,98201.03
2022-12-25T08:38:03.693Z,98198.88
2022-12-25T08:41:06.785Z,98191.09
2022-12-25T08:44:09.680Z,98199.94
2022-12-25T08:47:14.590Z,98199.16
2022-12-25T08:50:17.805Z,98195.41
2022-12-25T08:53:21.659Z,98198.88
2022-12-25T08:56:24.951Z,98202.63
2022-12-25T08:59:27.774Z,98196.50
2022-12-25T09:02:32.989Z,98175.31
2022-12-25T09:05:36.027Z,98168.34
2022-12-25T09:08:45.930Z,98147.69
2022-12-25T09:11:51.461Z,98135.63
2022-12-25T09:14:54.700Z,98137.47
2022-12-25T09:17:59.319Z,98143.91
2022-12-25T09:21:07.366Z,98156.47
2022-12-25T09:24:10.222Z,98157.00
2022-12-25T09:27:13.506Z,98157.78
2022-12-25T09:30:16.585Z,98158.78
2022-12-25T09:33:21.799Z,98164.34
2022-12-25T09:36:24.758Z,98160.13
2022-12-25T09:39:27.718Z,98154.75
2022-12-25T09:42:32.376Z,98156.50
2022-12-25T09:45:38.572Z,98153.53
2022-12-25T09:48:48.532Z,98149.09
2022-12-25T09:51:58.055Z,98153.31
2022-12-25T09:55:07.904Z,98156.88
2022-12-25T09:58:13.417Z,98148.97
2022-12-25T10:01:22.565Z,98157.97
2022-12-25T10:04:41.732Z,98154.44
2022-12-25T10:07:51.395Z,98151.72
2022-12-25T10:11:01.763Z,98140.25
2022-12-25T10:14:17.048Z,98137.03
2022-12-25T10:17:33.054Z,98129.78
2022-12-25T10:20:46.777Z,98121.72
2022-12-25T10:23:54.696Z,98124.91
2022-12-25T10:26:57.779Z,98116.75
2022-12-25T10:30:03.429Z,98115.59
2022-12-25T10:33:06.223Z,98114.00
2022-12-25T10:36:11.805Z,98104.38
2022-12-25T10:39:18.357Z,98100.50
2022-12-25T10:42:32.146Z,98096.13
2022-12-25T10:45:44.153Z,98082.34
2022-12-25T10:48:50.753Z,98076.63
2022-12-25T10:51:55.393Z,98072.91
2022-12-25T10:54:58.254Z,98062.97
2022-12-25T10:58:02.067Z,98067.09
2022-12-25T11:01:07.816Z,98057.03
2022-12-25T11:04:19.994Z,98051.75
2022-12-25T11:07:27.717Z,98051.16
2022-12-25T11:10:32.960Z,98042.75
2022-12-25T11:13:40.313Z,98044.56
2022-12-25T11:16:43.160Z,98042.47
2022-12-25T11:19:53.409Z,98040.84
2022-12-25T11:22:57.600Z,98043.72
2022-12-25T11:26:02.249Z,98040.03
2022-12-25T11:29:19.176Z,98038.84
2022-12-25T11:32:28.909Z,98028.94
2022-12-25T11:35:38.228Z,98025.38
2022-12-25T11:38:42.177Z,98023.00
2022-12-25T11:41:45.515Z,98020.50
2022-12-25T11:44:52.927Z,98011.19
2022-12-25T11:47:58.101Z,98007.13
2022-12-25T11:51:03.339Z,98006.94
2022-12-25T11:54:17.715Z,98001.16
2022-12-25T11:57:22.622Z,97994.13
2022-12-25T12:00:25.551Z,97988.91
2022-12-25T12:03:32.251Z,97978.06
2022-12-25T12:06:46.829Z,97972.03
2022-12-25T12:09:59.849Z,97956.31
2022-12-25T12:13:19.468Z,97942.38
2022-12-25T12:16:22.241Z,97944.25
2022-12-25T12:19:27.964Z,97942.16
2022-12-25T12:22:30.704Z,97930.28
2022-12-25T12:25:40.653Z,97925.34
2022-12-25T12:28:46.891Z,97922.50
2022-12-25T12:31:52.305Z,97923.84
2022-12-25T12:34:56.290Z,97935.63
2022-12-25T12:38:02.243Z,97934.38
2022-12-25T12:41:09.317Z,97939.88
2022-12-25T12:44:13.734Z,97940.81
2022-12-25T12:47:30.545Z,97941.78
2022-12-25T12:50:37.074Z,97937.13
2022-12-25T12:53:41.407Z,97932.53
2022-12-25T12:56:56.366Z,97934.00
2022-12-25T13:00:11.321Z,97924.72
2022-12-25T13:03:32.716Z,97918.22
2022-12-25T13:06:41.975Z,97915.22
2022-12-25T13:09:59.225Z,97909.72
2022-12-25T13:13:11.504Z,97899.31
2022-12-25T13:16:23.181Z,97904.06
2022-12-25T13:19:28.543Z,97897.75
2022-12-25T13:22:33.907Z,97897.75
2022-12-25T13:25:36.747Z,97905.28
2022-12-25T13:28:40.948Z,97911.97
2022-12-25T13:31:43.700Z,97906.06
2022-12-25T13:34:46.488Z,97908.66
2022-12-25T13:37:49.798Z,97921.50
2022-12-25T13:41:13.180Z,97921.72
2022-12-25T13:44:22.204Z,97922.50
2022-12-25T13:47:27.993Z,97920.78
2022-12-25T13:50:32.790Z,97900.44
2022-12-25T13:53:35.799Z,97910.00
2022-12-25T13:56:38.467Z,97915.66
2022-12-25T13:59:45.428Z,97917.97
2022-12-25T14:02:48.672Z,97906.81
2022-12-25T14:05:57.852Z,97913.22
2022-12-25T14:09:01.023Z,97912.09
2022-12-25T14:12:04.864Z,97910.97
2022-12-25T14:15:16.981Z,97911.25
2022-12-25T14:18:22.172Z,97921.72
2022-12-25T14:21:29.656Z,97914.94
2022-12-25T14:24:35.300Z,97913.06
2022-12-25T14:27:38.144Z,97913.72
2022-12-25T14:30:44.002Z,97909.81
2022-12-25T14:33:48.234Z,97914.84
2022-12-25T14:36:52.404Z,97902.97
2022-12-25T14:39:57.053Z,97911.38
2022-12-25T14:43:02.160Z,97916.13
2022-12-25T14:46:07.249Z,97920.19
2022-12-25T14:49:25.230Z,97923.06
2022-12-25T14:52:31.553Z,97910.09
2022-12-25T14:55:34.297Z,97916.22
2022-12-25T14:58:42.229Z,97905.25
2022-12-25T15:01:52.209Z,97911.56
2022-12-25T15:04:55.537Z,97914.81
2022-12-25T15:08:03.707Z,97910.50
2022-12-25T15:11:06.563Z,97916.56
2022-12-25T15:14:09.224Z,97913.94
2022-12-25T15:17:21.477Z,97919.72
2022-12-25T15:20:31.234Z,97915.50
2022-12-25T15:23:33.886Z,97924.53
2022-12-25T15:26:36.539Z,97929.97
2022-12-25T15:30:08.348Z,97934.34
2022-12-25T15:33:03.161Z,97933.94
2022-12-25T15:36:06.186Z,97920.63
2022-12-25T15:39:08.915Z,97913.47
2022-12-25T15:42:13.495Z,97909.97
2022-12-25T15:45:21.227Z,97915.91
2022-12-25T15:48:25.250Z,97915.91
2022-12-25T15:51:27.992Z,97918.38
2022-12-25T15:54:30.637Z,97919.84
2022-12-25T15:57:35.055Z,97921.53
2022-12-25T16:00:37.712Z,97938.81
2022-12-25T16:03:41.792Z,97940.47
2022-12-25T16:06:44.658Z,97956.69
2022-12-25T16:09:47.522Z,97947.09
2022-12-25T16:12:50.197Z,97949.25
2022-12-25T16:15:52.864Z,97955.22
2022-12-25T16:18:56.982Z,97967.06
2022-12-25T16:21:59.627Z,97954.72
2022-12-25T16:25:02.303Z,97963.59
2022-12-25T16:28:06.171Z,97965.47
2022-12-25T16:31:09.254Z,97957.75
2022-12-25T16:34:13.276Z,97968.56
2022-12-25T16:37:15.898Z,97964.63
2022-12-25T16:40:18.800Z,97967.34
2022-12-25T16:43:24.204Z,97975.50
2022-12-25T16:46:27.474Z,97975.50
2022-12-25T16:49:31.848Z,97987.06
2022-12-25T16:52:35.508Z,97983.88
2022-12-25T16:55:38.666Z,97986.78
2022-12-25T16:58:41.603Z,97985.44
2022-12-25T17:01:44.405Z,97980.56
2022-12-25T17:04:49.194Z,97976.50
2022-12-25T17:07:52.072Z,97968.91
2022-12-25T17:10:54.826Z,97962.72
2022-12-25T17:13:58.635Z,97968.47
2022-12-25T17:17:01.553Z,97962.97
2022-12-25T17:20:07.327Z,97971.84
2022-12-25T17:23:11.043Z,97972.41
2022-12-25T17:26:13.676Z,97971.84
2022-12-25T17:29:21.660Z,97978.31
2022-12-25T17:32:24.879Z,97982.06
2022-12-25T17:35:29.170Z,97980.63
2022-12-25T17:38:32.685Z,97982.97
2022-12-25T17:41:35.324Z,97990.69
2022-12-25T17:44:37.997Z,97995.22
2022-12-25T17:47:40.685Z,97988.63
2022-12-25T17:50:44.752Z,97983.41
2022-12-25T17:53:50.115Z,97985.75
2022-12-25T17:56:52.775Z,97999.41
2022-12-25T17:59:55.860Z,97991.56
2022-12-25T18:03:02.936Z,97994.50
2022-12-25T18:06:13.333Z,97993.97
2022-12-25T18:09:15.980Z,97991.34
2022-12-25T18:12:19.029Z,98004.84
2022-12-25T18:15:21.683Z,98004.91
2022-12-25T18:18:24.362Z,98003.66
2022-12-25T18:21:28.424Z,98011.56
2022-12-25T18:24:31.111Z,98010.31
2022-12-25T18:27:33.754Z,98015.19
2022-12-25T18:30:39.735Z,98008.63
2022-12-25T18:33:42.431Z,98023.44
2022-12-25T18:36:46.426Z,98025.41
2022-12-25T18:39:49.126Z,98016.91
2022-12-25T18:42:59.390Z,98012.66
2022-12-25T18:46:07.176Z,98021.94
2022-12-25T18:49:10.965Z,98012.72
2022-12-25T18:52:50.129Z,98016.41
2022-12-25T18:55:41.187Z,98016.53
2022-12-25T18:58:44.306Z,98029.38
2022-12-25T19:01:47.261Z,98035.22
2022-12-25T19:04:50.046Z,98031.63
2022-12-25T19:07:54.138Z,98040.34
2022-12-25T19:10:56.758Z,98034.94
2022-12-25T19:13:59.604Z,98032.03
2022-12-25T19:17:02.339Z,98028.31
2022-12-25T19:20:06.762Z,98037.16
2022-12-25T19:23:10.835Z,98028.31
2022-12-25T19:26:14.124Z,98032.94
2022-12-25T19:29:16.808Z,98035.34
2022-12-25T19:32:19.438Z,98035.47
2022-12-25T19:35:22.231Z,98035.56
2022-12-25T19:38:26.168Z,98033.47
2022-12-25T19:41:28.858Z,98028.38
2022-12-25T19:44:31.493Z,98031.28
2022-12-25T19:47:34.133Z,98036.38
2022-12-25T19:50:37.012Z,98035.03
2022-12-25T19:53:41.079Z,98033.47
2022-12-25T19:56:44.310Z,98035.63
2022-12-25T19:59:46.936Z,98043.47
2022-12-25T20:02:49.603Z,98044.00
2022-12-25T20:05:52.958Z,98051.00
2022-12-25T20:08:59.736Z,98049.38
2022-12-25T20:12:02.821Z,98051.31
2022-12-25T20:15:06.019Z,98052.41
2022-12-25T20:18:08.662Z,98053.72
2022-12-25T20:21:14.204Z,98060.41
2022-12-25T20:24:18.257Z,98056.03
2022-12-25T20:27:21.011Z,98040.94
2022-12-25T20:30:23.678Z,98040.03
2022-12-25T20:33:26.408Z,98040.25
2022-12-25T20:36:34.627Z,98036.16
2022-12-25T20:39:41.219Z,98044.16
2022-12-25T20:42:44.224Z,98045.50
2022-12-25T20:45:46.910Z,98036.81
2022-12-25T20:48:49.559Z,98051.88
2022-12-25T20:51:52.584Z,98051.81
2022-12-25T20:54:56.782Z,98061.25
2022-12-25T20:57:59.433Z,98059.06
2022-12-25T21:01:06.361Z,98060.47
2022-12-25T21:04:14.453Z,98058.78
2022-12-25T21:07:18.759Z,98064.41
2022-12-25T21:10:23.105Z,98060.63
2022-12-25T21:13:26.120Z,98068.56
2022-12-25T21:16:28.880Z,98066.16
2022-12-25T21:19:31.596Z,98064.03
2022-12-25T21:22:34.551Z,98068.34
2022-12-25T21:25:38.756Z,98067.59
2022-12-25T21:28:41.842Z,98066.56
2022-12-25T21:32:02.222Z,98061.19
2022-12-25T21:35:05.622Z,98070.34
2022-12-25T21:38:08.345Z,98052.25
2022-12-25T21:41:14.824Z,98053.69
2022-12-25T21:44:17.941Z,98058.91
2022-12-25T21:47:20.618Z,98064.84
2022-12-25T21:50:40.920Z,98063.25
2022-12-25T21:53:43.584Z,98063.81
2022-12-25T21:56:49.765Z,98073.53
2022-12-25T21:59:52.419Z,98075.09
2022-12-25T22:02:55.431Z,98073.63
2022-12-25T22:06:21.413Z,98082.19
2022-12-25T22:09:25.001Z,98078.91
2022-12-25T22:12:46.729Z,98081.31
2022-12-25T22:16:07.129Z,98094.13
2022-12-25T22:19:27.830Z,98089.78
2022-12-25T22:22:31.782Z,98089.97
2022-12-25T22:25:34.408Z,98096.13
2022-12-25T22:28:38.387Z,98102.53
2022-12-25T22:31:46.631Z,98101.25
2022-12-25T22:34:49.920Z,98088.56
2022-12-25T22:37:53.875Z,98087.72
2022-12-25T22:40:56.569Z,98090.06
2022-12-25T22:44:17.205Z,98089.97
2022-12-25T22:47:20.676Z,98089.94
2022-12-25T22:50:23.299Z,98086.00
2022-12-25T22:53:25.973Z,98090.94
2022-12-25T22:56:28.670Z,98096.72
2022-12-25T22:59:33.675Z,98094.47
2022-12-25T23:02:36.571Z,98098.66
2022-12-25T23:05:39.453Z,98106.09
2022-12-25T23:08:42.103Z,98108.38
2022-12-25T23:11:45.221Z,98123.34
2022-12-25T23:14:48.309Z,98116.91
2022-12-25T23:18:10.721Z,98134.97
2022-12-25T23:21:28.789Z,98132.53
2022-12-25T23:24:49.242Z,98130.97
2022-12-25T23:27:51.901Z,98127.56
2022-12-25T23:30:56.617Z,98135.34
2022-12-25T23:34:01.724Z,98129.69
2022-12-25T23:37:07.335Z,98137.19
2022-12-25T23:40:12.689Z,98143.78
2022-12-25T23:43:17.515Z,98149.66
2022-12-25T23:46:23.638Z,98151.44
2022-12-25T23:49:29.484Z,98153.47
2022-12-25T23:52:34.213Z,98149.03
2022-12-25T23:55:38.950Z,98136.31
2022-12-25T23:58:45.491Z,98143.34
